Terminal Aerodrome Forecast
Issued by NWS

Home | Current Version | Previous Version | Graphics & Text | Print | Product List | Glossary On
Versions: 1 2 3 4 5 6 7 8 9 10 11 12 13 14 15 16 17 18 19 20 21 22 23 24 25 26 27 28
259
FTUS43 KTOP 280520
TAFFOE
TAF
KFOE 280520Z 2806/2906 26009KT P6SM SCT020
     FM281500 31010KT P6SM SCT060 BKN250
     FM290000 36006KT P6SM OVC200=

USA.gov is the U.S. government's official web portal to all federal, state and local government web resources and services.